Time;durP1;ratioP1;P1;durP2;ratioP2;P2;SDS_P1;SDS_P2;PMS_P1;PMS_P2;Temp;Humidity;BMP_temperature;BMP_pressure;BME280_temperature;BME280_humidity;BME280_pressure;Samples;Min_cycle;Max_cycle;Signal;HPM_P1;HPM_P2
2019/07/17 00:57:51;;;;;;;6;5.3;;;;;;;15.19;75.78711;938.3337;;;;
2019/07/17 01:00:20;;;;;;;6.7;5.7;;;;;;;14.93;76.88379;938.3716;;;;
2019/07/17 01:02:44;;;;;;;6.8;6.2;;;;;;;14.79;77.76855;938.3618;;;;
2019/07/17 01:05:18;;;;;;;7.6;6.4;;;;;;;14.85;77.43457;938.3681;;;;
2019/07/17 01:07:44;;;;;;;7.6;5.9;;;;;;;15.19;75.90234;938.231;;;;
2019/07/17 01:10:09;;;;;;;6.8;6.1;;;;;;;15.1;76.10449;938.2936;;;;
2019/07/17 01:12:40;;;;;;;6.6;5.9;;;;;;;14.97;76.49805;938.2863;;;;
2019/07/17 01:15:04;;;;;;;9.7;6.2;;;;;;;14.82;77.22168;938.3281;;;;
2019/07/17 01:17:30;;;;;;;6.6;6;;;;;;;14.91;76.97266;938.3444;;;;
2019/07/17 01:19:57;;;;;;;8.2;6.2;;;;;;;15.07;76.14551;938.2625;;;;
2019/07/17 01:22:27;;;;;;;7.6;6;;;;;;;15.01;76.34375;938.2899;;;;
2019/07/17 01:24:59;;;;;;;6.5;5.9;;;;;;;14.95;76.47168;938.3441;;;;
2019/07/17 01:27:23;;;;;;;6.6;6;;;;;;;14.91;76.86914;938.3099;;;;
2019/07/17 01:29:55;;;;;;;7.5;5.9;;;;;;;14.59;78.15039;938.2633;;;;
2019/07/17 01:32:23;;;;;;;6.7;6.1;;;;;;;14.43;78.8584;938.2939;;;;
2019/07/17 01:34:51;;;;;;;8.4;6.1;;;;;;;14.66;78.01172;938.3081;;;;
2019/07/17 01:37:18;;;;;;;6.5;5.9;;;;;;;14.46;78.89648;938.2914;;;;
2019/07/17 01:39:46;;;;;;;7.9;6;;;;;;;14.69;77.6709;938.296;;;;
2019/07/17 01:42:12;;;;;;;7.2;6.3;;;;;;;14.63;78.14453;938.2209;;;;
2019/07/17 01:44:36;;;;;;;7.2;6.3;;;;;;;14.92;76.83594;938.1375;;;;
2019/07/17 01:47:06;;;;;;;6.5;5.8;;;;;;;14.88;76.73535;938.2324;;;;
2019/07/17 01:49:27;;;;;;;7.4;6.2;;;;;;;14.95;76.51563;938.1733;;;;
2019/07/17 01:51:54;;;;;;;7;5.9;;;;;;;14.95;76.28711;938.2029;;;;
2019/07/17 01:54:24;;;;;;;6.9;6.2;;;;;;;14.86;76.50195;938.2558;;;;
2019/07/17 01:56:46;;;;;;;9;6.2;;;;;;;14.69;77.01465;938.2269;;;;
2019/07/17 01:59:09;;;;;;;8.8;6.1;;;;;;;14.69;77.0957;938.2012;;;;
2019/07/17 02:01:35;;;;;;;8.4;5.6;;;;;;;14.75;76.82813;938.1609;;;;
2019/07/17 02:04:06;;;;;;;6.6;6;;;;;;;14.71;76.87988;938.1178;;;;
2019/07/17 02:06:28;;;;;;;7;6.1;;;;;;;14.71;77.15625;938.1611;;;;
2019/07/17 02:08:56;;;;;;;8.6;6.4;;;;;;;14.68;77.20898;938.1172;;;;
2019/07/17 02:11:19;;;;;;;7;5.8;;;;;;;14.69;77.10547;938.0907;;;;
2019/07/17 02:13:54;;;;;;;6.9;6.2;;;;;;;14.44;77.90332;938.0662;;;;
2019/07/17 02:16:22;;;;;;;7;6.3;;;;;;;14.43;77.86719;938.0036;;;;
2019/07/17 02:18:50;;;;;;;6.6;6;;;;;;;14.43;77.93652;938.0119;;;;
2019/07/17 02:21:14;;;;;;;6.7;6.1;;;;;;;14.31;78.54883;938.0544;;;;
2019/07/17 02:23:43;;;;;;;7.2;6.5;;;;;;;14.05;79.91602;938.0282;;;;
2019/07/17 02:26:11;;;;;;;6.9;6.1;;;;;;;14.3;78.76465;938.0089;;;;
2019/07/17 02:28:35;;;;;;;8;6.4;;;;;;;14.28;78.91113;937.9985;;;;
2019/07/17 02:31:04;;;;;;;7;6.3;;;;;;;14.01;80.13965;937.9167;;;;
2019/07/17 02:33:29;;;;;;;7.4;6.7;;;;;;;14;80.42578;937.892;;;;
2019/07/17 02:35:59;;;;;;;7.3;6.2;;;;;;;14.09;79.70703;937.9375;;;;
2019/07/17 02:38:30;;;;;;;7.4;6.4;;;;;;;14.38;78.35352;937.8683;;;;
2019/07/17 02:40:53;;;;;;;7.3;6.6;;;;;;;14.2;78.94238;937.8873;;;;
2019/07/17 02:43:20;;;;;;;7.1;6.4;;;;;;;13.97;79.74121;937.8737;;;;
2019/07/17 02:45:49;;;;;;;8;6.4;;;;;;;13.83;80.49707;937.8423;;;;
2019/07/17 02:48:15;;;;;;;7.4;6.4;;;;;;;13.68;81.41406;937.8921;;;;
2019/07/17 02:50:44;;;;;;;7.8;6.6;;;;;;;13.68;81.44824;937.8961;;;;
2019/07/17 02:53:12;;;;;;;7.1;6.4;;;;;;;13.85;80.73145;937.9127;;;;
2019/07/17 02:55:39;;;;;;;7.8;6.3;;;;;;;14.14;79.37988;937.9028;;;;
2019/07/17 02:58:07;;;;;;;8.2;6.9;;;;;;;14.17;79.57031;937.9034;;;;
2019/07/17 03:00:30;;;;;;;7.6;6.8;;;;;;;14.19;79.21582;937.7224;;;;
2019/07/17 03:02:56;;;;;;;6.9;6.3;;;;;;;14.09;79.4502;937.8486;;;;
2019/07/17 03:05:22;;;;;;;7.9;7.1;;;;;;;13.93;80.03223;937.8098;;;;
2019/07/17 03:07:53;;;;;;;8.1;6.8;;;;;;;14.07;79.54102;937.8031;;;;
2019/07/17 03:10:18;;;;;;;10;7.1;;;;;;;14.14;79.18555;937.8083;;;;
2019/07/17 03:12:43;;;;;;;15.4;7.4;;;;;;;13.87;80.49316;937.8212;;;;
2019/07/17 03:15:07;;;;;;;9.7;6.9;;;;;;;14.01;79.62207;937.7886;;;;
2019/07/17 03:17:43;;;;;;;7.8;6.7;;;;;;;14.06;79.22852;937.7831;;;;
2019/07/17 03:20:06;;;;;;;7;6.4;;;;;;;13.9;79.90137;937.8044;;;;
2019/07/17 03:22:35;;;;;;;9.2;6.4;;;;;;;13.91;79.84473;937.8292;;;;
2019/07/17 03:25:02;;;;;;;10.8;7.3;;;;;;;13.59;81.36133;937.7913;;;;
2019/07/17 03:27:28;;;;;;;8.3;7.1;;;;;;;13.62;81.18359;937.7875;;;;
2019/07/17 03:29:51;;;;;;;7.8;6.6;;;;;;;13.68;80.67578;937.7729;;;;
2019/07/17 03:32:19;;;;;;;7.6;6.8;;;;;;;13.77;80.15234;937.8013;;;;
2019/07/17 03:34:47;;;;;;;9;7.5;;;;;;;13.46;82.15332;937.7877;;;;
2019/07/17 03:37:15;;;;;;;7.4;6.7;;;;;;;13.36;82.82422;937.8275;;;;
2019/07/17 03:39:42;;;;;;;9.4;7.1;;;;;;;13.32;82.72363;937.8324;;;;
2019/07/17 03:42:05;;;;;;;13;7.5;;;;;;;13.31;82.87109;937.7997;;;;
2019/07/17 03:44:38;;;;;;;7.6;6.8;;;;;;;13.44;82.24219;937.8069;;;;
2019/07/17 03:47:00;;;;;;;8.3;6.7;;;;;;;13.61;81.41211;937.7928;;;;
2019/07/17 03:49:32;;;;;;;7.1;6.4;;;;;;;13.49;82.19336;937.7419;;;;
2019/07/17 03:51:58;;;;;;;9.7;7.3;;;;;;;13.75;81.0918;937.7527;;;;
2019/07/17 03:54:26;;;;;;;13.7;9.1;;;;;;;13.87;80.59668;937.7701;;;;
2019/07/17 03:57:01;;;;;;;10.6;7.9;;;;;;;13.71;80.99316;937.7528;;;;
2019/07/17 03:59:19;;;;;;;10;7.7;;;;;;;13.65;81.30371;937.7634;;;;
2019/07/17 04:02:36;;;;;;;9.4;7;;;;;;;13.52;81.92383;937.7466;;;;
2019/07/17 04:05:02;;;;;;;8.3;6.5;;;;;;;13.56;81.85059;937.7346;;;;
2019/07/17 04:07:30;;;;;;;7.7;6.5;;;;;;;13.82;80.67969;937.711;;;;
2019/07/17 04:10:05;;;;;;;8.3;6.5;;;;;;;13.83;80.62402;937.7783;;;;
2019/07/17 04:12:33;;;;;;;8.7;6.5;;;;;;;13.92;80.26074;937.6658;;;;
2019/07/17 04:18:53;;;;;;;11.8;6.5;;;;;;;13.8;81.00977;937.674;;;;
2019/07/17 04:21:21;;;;;;;8.1;6.6;;;;;;;13.95;80.4502;937.7353;;;;
2019/07/17 04:23:49;;;;;;;10;6.8;;;;;;;13.98;80.00781;937.6375;;;;
2019/07/17 04:26:14;;;;;;;7.8;6.4;;;;;;;13.95;80.15137;937.6072;;;;
2019/07/17 04:28:42;;;;;;;8;5.8;;;;;;;13.77;80.7041;937.6821;;;;
2019/07/17 04:31:05;;;;;;;7.1;6.4;;;;;;;13.96;80.25586;937.6232;;;;
2019/07/17 04:33:30;;;;;;;9.1;6.3;;;;;;;13.87;80.23926;937.6548;;;;
2019/07/17 04:35:55;;;;;;;9;6.4;;;;;;;14;80.05762;937.6181;;;;
2019/07/17 04:38:22;;;;;;;11.1;6.1;;;;;;;13.88;80.50586;937.6323;;;;
2019/07/17 04:40:50;;;;;;;8.5;6.4;;;;;;;13.8;80.91797;937.5331;;;;
2019/07/17 04:43:21;;;;;;;7.2;6.5;;;;;;;13.8;80.97363;937.4827;;;;
2019/07/17 04:45:46;;;;;;;7.6;6.6;;;;;;;13.84;80.99609;937.5292;;;;
2019/07/17 04:48:13;;;;;;;9.2;6.9;;;;;;;14;80.59863;937.4052;;;;
2019/07/17 04:50:42;;;;;;;7.9;6.4;;;;;;;14.18;79.77832;937.4501;;;;
2019/07/17 04:53:08;;;;;;;9.5;6.9;;;;;;;14.3;79.36328;937.5139;;;;
2019/07/17 04:55:32;;;;;;;9.1;7.5;;;;;;;14.48;78.46289;937.4171;;;;
2019/07/17 04:57:57;;;;;;;9.5;7.5;;;;;;;14.55;78.26855;937.4775;;;;
2019/07/17 05:00:23;;;;;;;9.5;6.8;;;;;;;14.87;77.12598;937.3995;;;;
2019/07/17 05:02:54;;;;;;;8.5;6.6;;;;;;;14.78;77.35352;937.4007;;;;
2019/07/17 05:05:19;;;;;;;8.7;6.6;;;;;;;14.68;77.53223;937.3903;;;;
2019/07/17 05:07:50;;;;;;;8.3;7;;;;;;;14.76;77.19922;937.4289;;;;
2019/07/17 05:10:17;;;;;;;10.9;7.5;;;;;;;14.87;77.23926;937.4211;;;;
2019/07/17 05:12:46;;;;;;;13.7;6.8;;;;;;;14.77;78.05371;937.4361;;;;
2019/07/17 05:15:17;;;;;;;14.6;6.6;;;;;;;15.8;74.10254;937.3873;;;;
2019/07/17 05:17:43;;;;;;;8.9;5.5;;;;;;;17.07;68.97168;937.3367;;;;
2019/07/17 05:20:11;;;;;;;11.5;5.3;;;;;;;18.29;64.23633;937.3231;;;;
2019/07/17 05:22:38;;;;;;;7.3;5;;;;;;;19.14;61.2168;937.2967;;;;
2019/07/17 05:25:08;;;;;;;9.4;4.6;;;;;;;19.48;59.84277;937.278;;;;
2019/07/17 05:27:37;;;;;;;6.8;4.3;;;;;;;19.92;58.58301;937.2558;;;;
2019/07/17 05:30:11;;;;;;;7.4;4.3;;;;;;;20.58;56.14648;937.2148;;;;
2019/07/17 05:32:40;;;;;;;7.5;4.4;;;;;;;20.46;55.80566;937.2085;;;;
2019/07/17 05:35:07;;;;;;;6.2;4.6;;;;;;;19.91;57.71875;937.2;;;;
2019/07/17 05:37:32;;;;;;;5.9;4.3;;;;;;;20.21;56.74316;937.1046;;;;
2019/07/17 05:39:56;;;;;;;5.3;4.2;;;;;;;21;54.65723;937.0918;;;;
2019/07/17 05:42:24;;;;;;;4.9;3.8;;;;;;;21.98;53.25391;937.0339;;;;
2019/07/17 05:44:47;;;;;;;6;3.9;;;;;;;22.26;50.23926;937.0333;;;;
2019/07/17 05:47:12;;;;;;;5;3.4;;;;;;;22.97;50.38965;937.0142;;;;
2019/07/17 05:49:45;;;;;;;4.7;3.5;;;;;;;24.22;46.05566;936.9673;;;;
2019/07/17 05:52:09;;;;;;;5.7;3.2;;;;;;;24.45;46.71484;936.9645;;;;
2019/07/17 05:54:34;;;;;;;5.6;3;;;;;;;24.75;46.2041;937.0012;;;;
2019/07/17 05:57:01;;;;;;;3.5;3.2;;;;;;;25.62;42.09961;936.9753;;;;
2019/07/17 05:59:26;;;;;;;4.3;3;;;;;;;26.07;42.99414;936.9391;;;;
2019/07/17 06:01:50;;;;;;;4.9;3.2;;;;;;;26.44;41.84473;936.9073;;;;
2019/07/17 06:04:20;;;;;;;4.3;2.7;;;;;;;26.95;39.08398;936.8117;;;;
2019/07/17 06:06:45;;;;;;;3.8;2.9;;;;;;;26.57;39.41797;936.834;;;;
2019/07/17 06:09:11;;;;;;;5.1;3.2;;;;;;;26.67;39.27344;936.8353;;;;
2019/07/17 06:11:40;;;;;;;3.4;3.1;;;;;;;26.41;40.46875;936.8688;;;;
2019/07/17 06:14:01;;;;;;;3.4;2.9;;;;;;;26.65;39.70996;936.8821;;;;
2019/07/17 06:16:30;;;;;;;3.6;2.6;;;;;;;26.87;40.5459;936.7601;;;;
2019/07/17 06:18:54;;;;;;;4.1;2.7;;;;;;;27.7;38.84082;936.834;;;;
2019/07/17 06:21:19;;;;;;;5.3;2.8;;;;;;;28.3;38.56055;936.7773;;;;
2019/07/17 06:23:50;;;;;;;3.8;2.7;;;;;;;28.75;35.56445;936.7668;;;;
2019/07/17 06:26:14;;;;;;;2.9;2.7;;;;;;;27.8;38.69629;936.7377;;;;
2019/07/17 06:28:41;;;;;;;3.3;2.8;;;;;;;28.25;39.00781;936.7467;;;;
2019/07/17 06:31:04;;;;;;;3.5;2.7;;;;;;;28.18;38.68066;936.7528;;;;
2019/07/17 06:33:29;;;;;;;3.7;2.7;;;;;;;28.9;35.17188;936.6902;;;;
2019/07/17 06:35:55;;;;;;;3.1;2.7;;;;;;;28.95;36.12695;936.6586;;;;
2019/07/17 06:38:23;;;;;;;3.3;2.8;;;;;;;29.06;36.68359;936.7455;;;;
2019/07/17 06:40:48;;;;;;;3.1;2.7;;;;;;;29.31;36.84766;936.6931;;;;
2019/07/17 06:43:18;;;;;;;5.5;2.7;;;;;;;29.61;35.67969;936.6733;;;;
2019/07/17 06:45:43;;;;;;;4.8;2.8;;;;;;;30.25;35.69434;936.6802;;;;
2019/07/17 06:48:17;;;;;;;4.3;2.8;;;;;;;30.51;33.95898;936.687;;;;
2019/07/17 06:50:41;;;;;;;3.8;2.7;;;;;;;29.61;33.60547;936.6641;;;;
2019/07/17 06:53:14;;;;;;;4;2.7;;;;;;;29.06;37.26758;936.592;;;;
2019/07/17 06:55:41;;;;;;;4.2;2.8;;;;;;;28.43;36.83496;936.6111;;;;
2019/07/17 06:58:06;;;;;;;3.6;2.4;;;;;;;28.82;35.73633;936.5767;;;;
2019/07/17 07:00:31;;;;;;;3.2;2.7;;;;;;;29.73;33.97266;936.5472;;;;
2019/07/17 07:02:59;;;;;;;3;2.7;;;;;;;30.52;34.36621;936.5698;;;;
2019/07/17 07:05:22;;;;;;;4.7;2.7;;;;;;;29.97;36.61523;936.6281;;;;
2019/07/17 07:07:51;;;;;;;4;2.6;;;;;;;29.76;33.84375;936.6022;;;;
2019/07/17 07:10:19;;;;;;;4.5;2.9;;;;;;;29.44;34.10449;936.462;;;;
2019/07/17 07:12:42;;;;;;;3.9;2.6;;;;;;;29.29;34.43848;936.4398;;;;
2019/07/17 07:15:08;;;;;;;3.6;2.8;;;;;;;30.13;34.70605;936.4636;;;;
2019/07/17 07:17:51;;;;;;;4.8;2.5;;;;;;;30.45;34.28906;936.4387;;;;
2019/07/17 07:20:24;;;;;;;3.6;2.6;;;;;;;31.07;33.24805;936.3945;;;;
2019/07/17 07:22:42;;;;;;;2.9;2.5;;;;;;;31.53;33.24609;936.3764;;;;
2019/07/17 07:25:07;;;;;;;3;2.5;;;;;;;31.28;33.89746;936.3734;;;;
2019/07/17 07:27:32;;;;;;;3;2.6;;;;;;;30.93;34.22949;936.3362;;;;
2019/07/17 07:30:02;;;;;;;3.9;2.6;;;;;;;30.61;32.65234;936.3272;;;;
2019/07/17 07:32:27;;;;;;;3.7;2.5;;;;;;;30.89;31.28613;936.3036;;;;
2019/07/17 07:34:50;;;;;;;3.6;2.4;;;;;;;30.07;32.9834;936.3167;;;;
2019/07/17 07:37:17;;;;;;;3.4;2.8;;;;;;;30.24;32.19629;936.353;;;;
2019/07/17 07:39:41;;;;;;;3.4;2.6;;;;;;;30.13;32.12891;936.302;;;;
2019/07/17 07:42:05;;;;;;;3.2;2.6;;;;;;;29.8;32.42773;936.3459;;;;
2019/07/17 07:44:36;;;;;;;2.9;2.6;;;;;;;29.32;33.70313;936.3032;;;;
2019/07/17 07:46:59;;;;;;;5.9;2.7;;;;;;;29.51;33.46777;936.3572;;;;
2019/07/17 07:49:37;;;;;;;4.7;2.8;;;;;;;28.93;34.15039;936.3044;;;;
2019/07/17 07:51:59;;;;;;;3.2;2.6;;;;;;;28.34;39.11035;936.2296;;;;
2019/07/17 07:54:30;;;;;;;5.5;2.9;;;;;;;29.48;37.44531;936.2628;;;;
2019/07/17 07:56:55;;;;;;;4;2.4;;;;;;;29.1;36.03223;936.2364;;;;
2019/07/17 07:59:25;;;;;;;3.6;2.5;;;;;;;30.96;31.80469;936.1859;;;;
2019/07/17 08:01:52;;;;;;;4.2;2.5;;;;;;;32.16;30.16309;936.1552;;;;
2019/07/17 08:04:19;;;;;;;3.7;2.3;;;;;;;32.37;32.65918;936.1661;;;;
2019/07/17 08:06:45;;;;;;;4.8;2.8;;;;;;;32.5;29.84961;936.1367;;;;
2019/07/17 08:09:15;;;;;;;3.2;2.3;;;;;;;33.15;31.53809;936.1038;;;;
2019/07/17 08:11:40;;;;;;;3;2.3;;;;;;;33.7;29.31445;936.096;;;;
2019/07/17 08:14:14;;;;;;;3.9;2.3;;;;;;;34.03;28.06055;936.111;;;;
2019/07/17 08:16:38;;;;;;;3.3;2.5;;;;;;;34.82;26.05859;936.0246;;;;
2019/07/17 08:19:05;;;;;;;5.3;2.5;;;;;;;34.53;28.875;935.9796;;;;
2019/07/17 08:21:28;;;;;;;2.9;2.1;;;;;;;34.93;26.89746;935.9908;;;;
2019/07/17 08:24:01;;;;;;;2.9;2;;;;;;;35.02;24.75488;935.9633;;;;
2019/07/17 08:26:32;;;;;;;3.2;2.1;;;;;;;35.4;26.35742;935.9598;;;;
2019/07/17 08:29:03;;;;;;;3.4;2.2;;;;;;;35.71;26.25391;935.8898;;;;
2019/07/17 08:31:33;;;;;;;3.7;2.3;;;;;;;35.83;26.3457;935.8334;;;;
2019/07/17 08:33:57;;;;;;;2.6;2;;;;;;;36.21;27.45605;935.8057;;;;
2019/07/17 08:36:28;;;;;;;2.2;2;;;;;;;35.83;23.16699;935.7325;;;;
2019/07/17 08:38:51;;;;;;;4;2.3;;;;;;;36.06;24.9082;935.7134;;;;
2019/07/17 08:41:14;;;;;;;2.1;1.8;;;;;;;36.75;21.42188;935.688;;;;
2019/07/17 08:43:39;;;;;;;2.6;1.8;;;;;;;36.58;23.75;935.762;;;;
2019/07/17 08:46:12;;;;;;;2.4;1.9;;;;;;;34.51;28.78809;935.7247;;;;
2019/07/17 08:48:32;;;;;;;2.3;1.9;;;;;;;34.42;28.27637;935.7634;;;;
2019/07/17 08:50:57;;;;;;;2.7;2;;;;;;;33.6;24.13672;935.671;;;;
2019/07/17 08:53:21;;;;;;;3.6;1.8;;;;;;;34.82;23.27344;935.6843;;;;
2019/07/17 08:55:52;;;;;;;2.9;2;;;;;;;35.37;21.26074;935.6121;;;;
2019/07/17 08:58:20;;;;;;;2.8;2;;;;;;;35.1;24.2168;935.5722;;;;
2019/07/17 09:00:45;;;;;;;3.1;1.9;;;;;;;33.58;30.51074;935.642;;;;
2019/07/17 09:03:10;;;;;;;2.4;2;;;;;;;34.2;26.27637;935.6039;;;;
2019/07/17 09:05:35;;;;;;;3.2;2;;;;;;;34.7;25.61816;935.6291;;;;
2019/07/17 09:08:04;;;;;;;3.1;2;;;;;;;33.65;28.02441;935.5684;;;;
2019/07/17 09:10:25;;;;;;;2.9;2.2;;;;;;;32.98;28.65527;935.4846;;;;
2019/07/17 09:12:53;;;;;;;4.2;2.2;;;;;;;33.56;29.77441;935.5633;;;;
2019/07/17 09:15:16;;;;;;;7;2.2;;;;;;;33.34;29.09863;935.5659;;;;
2019/07/17 09:17:45;;;;;;;2.5;2.3;;;;;;;33.05;29.53809;935.4928;;;;
2019/07/17 09:20:17;;;;;;;3;2.3;;;;;;;32.81;32.0918;935.4844;;;;
2019/07/17 09:28:21;;;;;;;4.2;2.6;;;;;;;32.3;32.21094;935.3837;;;;
2019/07/17 09:30:50;;;;;;;3.4;2.4;;;;;;;31.95;33.12109;935.2983;;;;
2019/07/17 09:33:21;;;;;;;4.1;2.8;;;;;;;31.84;32.99316;935.2484;;;;
2019/07/17 09:35:50;;;;;;;3.2;2.7;;;;;;;31.74;33.14063;935.3417;;;;
2019/07/17 09:38:19;;;;;;;3.5;2.7;;;;;;;31.4;33.3916;935.2634;;;;
2019/07/17 09:40:41;;;;;;;3.3;2.8;;;;;;;31.44;34.01758;935.2684;;;;
2019/07/17 09:43:06;;;;;;;5.6;2.8;;;;;;;31.28;35.4043;935.2595;;;;
2019/07/17 09:45:34;;;;;;;4.1;2.8;;;;;;;31.38;34.85059;935.2531;;;;
2019/07/17 09:47:58;;;;;;;4.9;2.8;;;;;;;31.43;32.73535;935.3367;;;;
2019/07/17 09:50:25;;;;;;;3.1;2.7;;;;;;;31.11;33.19141;935.2977;;;;
2019/07/17 09:52:54;;;;;;;4.2;2.8;;;;;;;30.71;32.34961;935.3524;;;;
2019/07/17 09:55:21;;;;;;;3.1;2.8;;;;;;;30.84;34.27148;935.3422;;;;
2019/07/17 09:57:53;;;;;;;3.1;2.7;;;;;;;30.92;34.48047;935.3058;;;;
2019/07/17 10:00:23;;;;;;;3.5;2.4;;;;;;;31;33.01563;935.3011;;;;
2019/07/17 10:02:48;;;;;;;4.9;2.8;;;;;;;30.94;33.71582;935.2597;;;;
2019/07/17 10:05:13;;;;;;;4.6;2.8;;;;;;;31.23;33.12793;935.2808;;;;
2019/07/17 10:07:41;;;;;;;4.1;2.8;;;;;;;31.05;34.99219;935.2444;;;;
2019/07/17 10:10:07;;;;;;;6.6;3.2;;;;;;;31.1;33.59766;935.199;;;;
2019/07/17 10:12:38;;;;;;;3.5;2.9;;;;;;;31.3;33.22852;935.2119;;;;
2019/07/17 10:15:04;;;;;;;4.1;2.9;;;;;;;31.39;35.27051;935.195;;;;
2019/07/17 10:17:32;;;;;;;5.3;2.8;;;;;;;31.29;31.73242;935.1777;;;;
2019/07/17 10:19:54;;;;;;;4.2;2.7;;;;;;;31.05;34.38184;935.1655;;;;
2019/07/17 10:22:21;;;;;;;3.6;2.6;;;;;;;31.08;33.70313;935.1677;;;;
2019/07/17 10:24:54;;;;;;;3.9;2.8;;;;;;;31.37;34.44238;935.1808;;;;
2019/07/17 10:27:14;;;;;;;5.3;3;;;;;;;31.31;32.63184;935.1486;;;;
2019/07/17 10:29:41;;;;;;;4.5;2.8;;;;;;;31.11;34.375;935.1752;;;;
2019/07/17 10:32:07;;;;;;;4.5;2.8;;;;;;;30.82;34.22168;935.1881;;;;
2019/07/17 10:34:36;;;;;;;7.6;2.9;;;;;;;30.94;35.23438;935.1807;;;;
2019/07/17 10:37:12;;;;;;;3.5;2.7;;;;;;;31.12;34.83105;935.1553;;;;
2019/07/17 10:39:36;;;;;;;24.6;3.3;;;;;;;31.31;33.63672;935.1617;;;;
2019/07/17 10:41:56;;;;;;;6;2.6;;;;;;;31.73;32.74512;935.1942;;;;
2019/07/17 10:44:23;;;;;;;8.1;2.8;;;;;;;32.17;33.36426;935.1082;;;;
2019/07/17 10:46:53;;;;;;;3.4;2.6;;;;;;;32.14;30.25781;935.1311;;;;
2019/07/17 10:49:22;;;;;;;5.9;3;;;;;;;31.47;30.64453;935.1311;;;;
2019/07/17 10:51:51;;;;;;;4.1;2.6;;;;;;;31.69;32.53809;935.1142;;;;
2019/07/17 10:54:18;;;;;;;5.3;2.5;;;;;;;31.51;33.50781;935.1201;;;;
2019/07/17 10:59:40;;;;;;;5.6;2.9;;;;;;;31.36;34.86133;935.0729;;;;
2019/07/17 11:02:06;;;;;;;5.6;2.9;;;;;;;31.4;34.9834;935.0303;;;;
2019/07/17 11:04:34;;;;;;;6;3;;;;;;;31.5;35.29102;934.9952;;;;
2019/07/17 11:07:05;;;;;;;6.5;3.5;;;;;;;31.19;35.01563;935.0114;;;;
2019/07/17 11:09:30;;;;;;;5.7;3.2;;;;;;;30.81;33.68262;934.9356;;;;
2019/07/17 11:11:54;;;;;;;15.6;6.9;;;;;;;30.7;35.77832;934.9775;;;;
2019/07/17 11:14:24;;;;;;;11;5.5;;;;;;;30.35;34.99805;934.939;;;;
2019/07/17 11:16:44;;;;;;;42;24;;;;;;;30.34;36.28711;934.9456;;;;
2019/07/17 11:19:17;;;;;;;16.3;9.9;;;;;;;30.22;36.49219;935.0291;;;;
2019/07/17 11:21:44;;;;;;;69.2;28;;;;;;;30.36;36.77832;934.981;;;;
2019/07/17 11:24:11;;;;;;;19.2;8.9;;;;;;;30.05;36.98047;934.962;;;;
2019/07/17 11:26:36;;;;;;;28.8;13.6;;;;;;;30.34;36.15625;934.9758;;;;
2019/07/17 11:29:00;;;;;;;31.8;18.5;;;;;;;30.18;36.90723;935.0005;;;;
2019/07/17 11:31:33;;;;;;;4.7;3.4;;;;;;;30.39;36.38574;934.9426;;;;
2019/07/17 11:33:55;;;;;;;6.3;3.3;;;;;;;30.7;36.25586;934.921;;;;
2019/07/17 11:36:19;;;;;;;4.2;3.1;;;;;;;30.38;36.05078;934.8954;;;;
2019/07/17 11:38:49;;;;;;;7;3.4;;;;;;;30.42;38.6709;934.9528;;;;
2019/07/17 11:41:13;;;;;;;4.1;3.1;;;;;;;30.25;36.61328;934.9319;;;;
2019/07/17 11:43:37;;;;;;;5.2;3.1;;;;;;;30.53;36.55273;934.9601;;;;
2019/07/17 11:46:03;;;;;;;3.7;3;;;;;;;30.33;34.74609;934.8958;;;;
2019/07/17 11:48:31;;;;;;;4.6;3.1;;;;;;;29.79;36.68457;934.9774;;;;
2019/07/17 11:50:57;;;;;;;5.7;3;;;;;;;29.32;37.71875;934.9631;;;;
2019/07/17 11:53:26;;;;;;;4.5;3.3;;;;;;;29.13;38.13086;934.9846;;;;
2019/07/17 11:56:03;;;;;;;5;3.2;;;;;;;29.32;38.1582;934.942;;;;
2019/07/17 11:58:24;;;;;;;4;3.2;;;;;;;29.72;36.69043;934.8451;;;;
2019/07/17 12:00:48;;;;;;;5.8;3;;;;;;;30;38.09766;934.8698;;;;
2019/07/17 12:03:17;;;;;;;5.7;3.4;;;;;;;30.42;37.03418;934.8608;;;;
2019/07/17 12:05:43;;;;;;;4;2.9;;;;;;;30.6;36.73828;934.8332;;;;
2019/07/17 12:08:07;;;;;;;4.9;3.2;;;;;;;30.27;37.53516;934.7872;;;;
2019/07/17 12:10:41;;;;;;;7.4;3.3;;;;;;;30.52;36.13379;934.7997;;;;
2019/07/17 12:13:13;;;;;;;8.7;3.3;;;;;;;30.85;36.45996;934.6869;;;;
2019/07/17 12:15:37;;;;;;;4;3.2;;;;;;;30.78;34.75684;934.7084;;;;
2019/07/17 12:18:09;;;;;;;5.6;3.3;;;;;;;30.46;34.75586;934.7134;;;;
2019/07/17 12:20:43;;;;;;;4.9;3.4;;;;;;;30.2;34.67578;934.6994;;;;
2019/07/17 12:23:05;;;;;;;5.2;3.3;;;;;;;30.18;34.43652;934.6983;;;;
2019/07/17 12:25:30;;;;;;;5.3;3.3;;;;;;;30.36;36.74219;934.6655;;;;
2019/07/17 12:28:23;;;;;;;6.6;3.4;;;;;;;30.77;35.73535;934.6756;;;;
2019/07/17 12:30:30;;;;;;;5.9;3.2;;;;;;;30.83;34.95215;934.6381;;;;
2019/07/17 12:32:58;;;;;;;6.9;3.5;;;;;;;30.81;35.53613;934.6633;;;;
2019/07/17 12:35:41;;;;;;;4.8;3.2;;;;;;;31.06;35.54395;934.6269;;;;
2019/07/17 12:38:01;;;;;;;6.2;3.4;;;;;;;31.59;33.38281;934.6303;;;;
2019/07/17 12:40:25;;;;;;;3.4;3.1;;;;;;;31.78;33.2041;934.6362;;;;
2019/07/17 12:42:50;;;;;;;5.7;3.2;;;;;;;31.98;32.53613;934.6428;;;;
2019/07/17 12:45:18;;;;;;;4.6;3.3;;;;;;;32.19;34.30078;934.6122;;;;
2019/07/17 12:47:40;;;;;;;6.4;3.4;;;;;;;31.9;32.90137;934.5873;;;;
2019/07/17 12:50:06;;;;;;;4.4;3.3;;;;;;;31.76;34.99902;934.5956;;;;
2019/07/17 12:52:30;;;;;;;4.3;3;;;;;;;32.25;32.24316;934.618;;;;
2019/07/17 12:55:00;;;;;;;4.9;3.3;;;;;;;32.25;30.78027;934.5653;;;;
2019/07/17 12:57:26;;;;;;;6.2;3.3;;;;;;;31.28;33.95801;934.6486;;;;
2019/07/17 12:59:49;;;;;;;4.8;3.4;;;;;;;30.89;33.86816;934.6404;;;;
2019/07/17 13:02:16;;;;;;;5.8;3.7;;;;;;;30.42;33.88086;934.6071;;;;
2019/07/17 13:04:40;;;;;;;4.1;3.2;;;;;;;30.23;34.65527;934.5966;;;;
2019/07/17 13:07:16;;;;;;;5.6;3.5;;;;;;;30.1;34.65625;934.5726;;;;
2019/07/17 13:09:39;;;;;;;7.2;3.9;;;;;;;30.06;35.41797;934.623;;;;
2019/07/17 13:12:09;;;;;;;5.4;3.7;;;;;;;29.72;37.38086;934.6403;;;;
2019/07/17 13:14:32;;;;;;;9.6;3.7;;;;;;;29.65;36.56543;934.6919;;;;
2019/07/17 13:16:57;;;;;;;4.6;3.7;;;;;;;29.71;36.26074;934.6809;;;;
2019/07/17 13:19:26;;;;;;;5.4;3.8;;;;;;;29.87;36.1416;934.6434;;;;
2019/07/17 13:21:53;;;;;;;4.1;3.7;;;;;;;29.55;36.80762;934.7525;;;;
2019/07/17 13:24:19;;;;;;;5.1;3.8;;;;;;;29.45;36.28711;934.7357;;;;
2019/07/17 13:26:50;;;;;;;6.6;4.2;;;;;;;29.64;36.95801;934.7418;;;;
2019/07/17 13:29:17;;;;;;;5.9;3.8;;;;;;;29.6;36.87207;934.7653;;;;
2019/07/17 13:31:44;;;;;;;5.2;3.8;;;;;;;29.77;36.50293;934.7056;;;;
2019/07/17 13:34:20;;;;;;;6.9;3.8;;;;;;;29.22;37.03027;934.7099;;;;
2019/07/17 13:36:40;;;;;;;6.6;3.8;;;;;;;29.12;37.12988;934.671;;;;
2019/07/17 13:39:05;;;;;;;4.5;3.9;;;;;;;29.16;37.88379;934.7285;;;;
2019/07/17 13:41:31;;;;;;;5.8;3.9;;;;;;;28.81;38.52051;934.7944;;;;
2019/07/17 13:43:56;;;;;;;5.7;4.1;;;;;;;28.8;39.22168;934.7695;;;;
2019/07/17 13:46:21;;;;;;;7.1;4;;;;;;;28.88;38.51367;934.7346;;;;
2019/07/17 13:48:48;;;;;;;5.5;4;;;;;;;28.88;39.74023;934.7424;;;;
2019/07/17 13:51:14;;;;;;;5.2;4.2;;;;;;;28.85;39.9873;934.7434;;;;
2019/07/17 13:53:39;;;;;;;5.8;4.3;;;;;;;28.9;40.02832;934.6833;;;;
2019/07/17 13:56:09;;;;;;;10.3;4.3;;;;;;;29.18;39.54102;934.7875;;;;
2019/07/17 13:58:37;;;;;;;5.5;4.1;;;;;;;29.14;39.14355;934.6892;;;;
2019/07/17 14:00:59;;;;;;;6;4.3;;;;;;;28.95;38.56738;934.7094;;;;
2019/07/17 14:03:41;;;;;;;6.5;4.3;;;;;;;28.72;37.87012;934.7749;;;;
2019/07/17 14:05:55;;;;;;;6.2;4;;;;;;;28.46;39.01465;934.7319;;;;
2019/07/17 14:08:25;;;;;;;5.6;4.3;;;;;;;28.7;41.10449;934.7081;;;;
2019/07/17 14:10:50;;;;;;;6.8;4.2;;;;;;;28.82;37.24805;934.692;;;;
2019/07/17 14:13:24;;;;;;;9;4.6;;;;;;;29.2;38.00684;934.6562;;;;
2019/07/17 14:15:55;;;;;;;5.9;4.1;;;;;;;29.56;38.15527;934.6646;;;;
2019/07/17 14:18:19;;;;;;;5.5;4;;;;;;;29.69;38.5;934.6719;;;;
2019/07/17 14:20:56;;;;;;;4.6;3.9;;;;;;;29.4;38.66699;934.6779;;;;
2019/07/17 14:23:21;;;;;;;6;4;;;;;;;29.17;36.68066;934.6406;;;;
2019/07/17 14:25:55;;;;;;;8.3;4.3;;;;;;;29.33;38.70703;934.7045;;;;
2019/07/17 14:28:15;;;;;;;9.4;4.5;;;;;;;29.01;36.44238;934.6501;;;;
2019/07/17 14:30:43;;;;;;;8.9;4.5;;;;;;;28.54;37.37891;934.6492;;;;
2019/07/17 14:33:13;;;;;;;7.1;4.4;;;;;;;28.39;38.31738;934.7001;;;;
2019/07/17 14:35:34;;;;;;;15.3;5.5;;;;;;;28.34;40.13281;934.6609;;;;
2019/07/17 14:38:08;;;;;;;14.5;5.5;;;;;;;28.08;39.06445;934.5909;;;;
2019/07/17 14:40:38;;;;;;;8.2;4.2;;;;;;;28.16;38.85742;934.5608;;;;
2019/07/17 14:43:01;;;;;;;6.8;4.2;;;;;;;28.16;39.93848;934.608;;;;
2019/07/17 14:48:51;;;;;;;6;3.9;;;;;;;27.92;41.09277;934.5709;;;;
2019/07/17 14:51:17;;;;;;;11;4.2;;;;;;;27.83;40.56152;934.5078;;;;
2019/07/17 14:53:43;;;;;;;54.3;9.6;;;;;;;27.98;40.71777;934.5815;;;;
2019/07/17 14:56:09;;;;;;;9.1;4.5;;;;;;;27.99;39.7793;934.5069;;;;
2019/07/17 14:58:35;;;;;;;16.7;6.1;;;;;;;27.82;39.8125;934.4528;;;;
2019/07/17 15:01:02;;;;;;;22.5;8.5;;;;;;;27.95;40.92969;934.5396;;;;
2019/07/17 15:03:31;;;;;;;20.4;7.2;;;;;;;27.99;40.58789;934.4846;;;;
2019/07/17 15:05:57;;;;;;;10.9;5.4;;;;;;;28.01;39.71191;934.4715;;;;
2019/07/17 15:08:21;;;;;;;5.7;4.2;;;;;;;27.95;38.96973;934.5003;;;;
2019/07/17 15:10:45;;;;;;;22.3;7;;;;;;;27.96;39.3623;934.4714;;;;
2019/07/17 15:13:16;;;;;;;12;5.6;;;;;;;27.92;38.84863;934.4833;;;;
2019/07/17 15:15:40;;;;;;;15.3;5.5;;;;;;;28.11;39.20898;934.4469;;;;
2019/07/17 15:18:07;;;;;;;6.9;4.4;;;;;;;28.12;39.94727;934.4966;;;;
2019/07/17 15:20:36;;;;;;;5.1;4.3;;;;;;;28.17;39.12012;934.4573;;;;
2019/07/17 15:23:05;;;;;;;5.6;4.3;;;;;;;28.13;39.82813;934.4351;;;;
2019/07/17 15:25:29;;;;;;;6;4.3;;;;;;;28.03;39.44043;934.4256;;;;
2019/07/17 15:27:55;;;;;;;11.8;4.2;;;;;;;27.66;38.9082;934.4016;;;;
2019/07/17 15:30:21;;;;;;;8.1;4;;;;;;;27.38;38.5752;934.3649;;;;
2019/07/17 15:33:01;;;;;;;7.6;4.7;;;;;;;27.54;40.36914;934.3117;;;;
2019/07/17 15:35:29;;;;;;;13.3;5.4;;;;;;;27.38;40.5459;934.2379;;;;
2019/07/17 15:37:55;;;;;;;10.6;5.2;;;;;;;27.28;40.06152;934.2729;;;;